createdAt,value
2023-04-12T00:02:42.376Z,2.90
2023-04-12T00:05:30.824Z,4.13
2023-04-12T00:08:18.977Z,3.97
2023-04-12T00:11:07.828Z,2.97
2023-04-12T00:13:57.804Z,6.97
2023-04-12T00:16:46.446Z,5.63
2023-04-12T00:19:34.602Z,5.30
2023-04-12T00:22:22.640Z,3.33
2023-04-12T00:25:11.406Z,4.40
2023-04-12T00:27:59.587Z,3.57
2023-04-12T00:30:49.191Z,5.00
2023-04-12T00:33:37.624Z,5.47
2023-04-12T00:36:26.818Z,5.17
2023-04-12T00:39:15.069Z,2.90
2023-04-12T00:42:05.348Z,6.23
2023-04-12T00:44:54.016Z,6.10
2023-04-12T00:47:44.000Z,3.93
2023-04-12T00:50:32.333Z,4.77
2023-04-12T00:53:20.883Z,3.87
2023-04-12T00:56:11.894Z,3.53
2023-04-12T00:59:00.438Z,3.90
2023-04-12T01:01:49.493Z,5.27
2023-04-12T01:04:39.760Z,3.60
2023-04-12T01:07:44.933Z,9.10
2023-04-12T01:10:42.650Z,4.00
2023-04-12T01:13:36.010Z,3.30
2023-04-12T01:16:32.866Z,5.00
2023-04-12T01:19:38.205Z,4.77
2023-04-12T01:22:46.275Z,6.40
2023-04-12T01:25:54.059Z,5.60
2023-04-12T01:28:45.704Z,4.23
2023-04-12T01:31:36.265Z,3.33
2023-04-12T01:34:26.105Z,2.70
2023-04-12T01:37:16.383Z,5.30
2023-04-12T01:40:06.782Z,4.80
2023-04-12T01:43:06.120Z,5.57
2023-04-12T01:45:56.449Z,4.97
2023-04-12T01:48:49.736Z,4.43
2023-04-12T01:51:47.499Z,6.07
2023-04-12T01:54:39.797Z,5.30
2023-04-12T01:57:29.007Z,3.87
2023-04-12T02:00:19.113Z,3.07
2023-04-12T02:03:09.005Z,5.03
2023-04-12T02:05:59.055Z,4.00
2023-04-12T02:08:48.023Z,5.03
2023-04-12T02:11:36.338Z,5.10
2023-04-12T02:14:24.389Z,3.87
2023-04-12T02:17:13.610Z,3.67
2023-04-12T02:20:03.668Z,3.87
2023-04-12T02:22:53.930Z,5.00
2023-04-12T02:25:44.133Z,3.30
2023-04-12T02:28:33.936Z,4.50
2023-04-12T02:31:22.275Z,5.07
2023-04-12T02:34:10.787Z,8.00
2023-04-12T02:37:00.228Z,5.33
2023-04-12T02:39:48.279Z,4.10
2023-04-12T02:42:36.418Z,4.03
2023-04-12T02:45:24.674Z,6.53
2023-04-12T02:48:12.862Z,4.97
2023-04-12T02:51:01.234Z,4.90
2023-04-12T02:53:51.335Z,3.40
2023-04-12T02:56:39.380Z,3.73
2023-04-12T02:59:27.535Z,5.80
2023-04-12T03:02:16.120Z,6.10
2023-04-12T03:05:05.323Z,5.60
2023-04-12T03:07:53.734Z,2.63
2023-04-12T03:10:43.274Z,6.50
2023-04-12T03:13:31.583Z,3.47
2023-04-12T03:16:24.726Z,5.83
2023-04-12T03:19:14.624Z,5.67
2023-04-12T03:22:04.186Z,2.83
2023-04-12T03:24:52.275Z,5.97
2023-04-12T03:27:41.761Z,5.23
2023-04-12T03:30:29.862Z,5.97
2023-04-12T03:33:17.925Z,7.30
2023-04-12T03:36:06.786Z,5.77
2023-04-12T03:38:55.426Z,5.57
2023-04-12T03:41:44.192Z,6.30
2023-04-12T03:44:33.774Z,5.67
2023-04-12T03:47:22.927Z,4.43
2023-04-12T03:50:12.726Z,5.17
2023-04-12T03:53:00.951Z,5.73
2023-04-12T03:55:49.086Z,4.13
2023-04-12T03:58:38.501Z,4.93
2023-04-12T04:01:28.396Z,4.57
2023-04-12T04:04:16.784Z,6.10
2023-04-12T04:07:05.108Z,4.60
2023-04-12T04:09:54.760Z,4.23
2023-04-12T04:12:42.801Z,3.90
2023-04-12T04:15:30.923Z,4.83
2023-04-12T04:18:20.415Z,5.27
2023-04-12T04:21:09.147Z,5.53
2023-04-12T04:23:58.702Z,5.57
2023-04-12T04:26:46.966Z,4.20
2023-04-12T04:29:36.847Z,5.83
2023-04-12T04:32:25.290Z,6.37
2023-04-12T04:35:15.770Z,3.93
2023-04-12T04:38:04.198Z,4.40
2023-04-12T04:40:53.555Z,5.33
2023-04-12T04:43:42.718Z,4.83
2023-04-12T04:46:32.214Z,5.10
2023-04-12T04:49:20.811Z,7.00
2023-04-12T04:52:12.266Z,5.60
2023-04-12T04:55:02.905Z,6.00
2023-04-12T04:57:53.389Z,4.43
2023-04-12T05:00:44.979Z,8.20
2023-04-12T05:03:35.364Z,5.27
2023-04-12T05:06:23.691Z,3.93
2023-04-12T05:09:13.784Z,6.33
2023-04-12T05:12:02.664Z,4.87
2023-04-12T05:14:51.900Z,5.63
2023-04-12T05:17:40.791Z,6.37
2023-04-12T05:20:29.418Z,5.67
2023-04-12T05:23:17.633Z,6.70
2023-04-12T05:26:07.430Z,6.57
2023-04-12T05:28:56.205Z,5.20
2023-04-12T05:31:44.532Z,5.70
2023-04-12T05:34:33.521Z,2.77
2023-04-12T05:37:21.971Z,6.33
2023-04-12T05:40:14.393Z,4.73
2023-04-12T05:43:05.963Z,3.17
2023-04-12T05:45:55.222Z,6.33
2023-04-12T05:48:43.438Z,5.93
2023-04-12T05:51:40.376Z,5.67
2023-04-12T05:54:29.441Z,5.50
2023-04-12T05:57:18.411Z,4.50
2023-04-12T06:00:13.594Z,4.27
2023-04-12T06:03:02.661Z,4.00
2023-04-12T06:05:51.496Z,4.90
2023-04-12T06:08:40.130Z,4.67
2023-04-12T06:11:28.471Z,5.07
2023-04-12T06:14:17.116Z,6.03
2023-04-12T06:17:06.884Z,3.27
2023-04-12T06:19:55.972Z,4.37
2023-04-12T06:22:44.149Z,3.87
2023-04-12T06:25:32.271Z,3.23
2023-04-12T06:28:20.764Z,7.17
2023-04-12T06:31:09.041Z,4.30
2023-04-12T06:33:58.582Z,3.60
2023-04-12T06:36:47.806Z,6.57
2023-04-12T06:39:36.975Z,3.00
2023-04-12T06:42:26.374Z,3.13
2023-04-12T06:45:14.756Z,3.43
2023-04-12T06:48:02.982Z,2.47
2023-04-12T06:50:52.494Z,2.20
2023-04-12T06:53:40.945Z,3.33
2023-04-12T06:56:29.153Z,3.20
2023-04-12T06:59:17.855Z,2.73
2023-04-12T07:02:07.745Z,2.10
2023-04-12T07:04:56.324Z,2.23
2023-04-12T07:07:45.961Z,5.47
2023-04-12T07:10:36.056Z,2.70
2023-04-12T07:13:24.155Z,2.30
2023-04-12T07:16:12.223Z,4.17
2023-04-12T07:19:00.993Z,1.37
2023-04-12T07:21:49.212Z,1.50
2023-04-12T07:24:39.023Z,2.20
2023-04-12T07:27:27.320Z,1.80
2023-04-12T07:30:15.881Z,2.67
2023-04-12T07:33:18.394Z,2.80
2023-04-12T07:36:08.864Z,3.20
2023-04-12T07:38:57.153Z,1.70
2023-04-12T07:41:48.471Z,1.60
2023-04-12T07:44:38.503Z,2.47
2023-04-12T07:47:27.260Z,1.87
2023-04-12T07:50:15.747Z,2.37
2023-04-12T07:53:20.450Z,1.80
2023-04-12T07:56:09.352Z,2.20
2023-04-12T07:58:59.015Z,1.77
2023-04-12T08:01:47.545Z,1.63
2023-04-12T08:04:35.821Z,2.53
2023-04-12T08:07:24.146Z,1.83
2023-04-12T08:10:12.424Z,1.37
2023-04-12T08:13:00.825Z,1.07
2023-04-12T08:15:50.449Z,0.57
2023-04-12T08:18:38.785Z,1.13
2023-04-12T08:21:27.677Z,2.17
2023-04-12T08:24:15.872Z,2.07
2023-04-12T08:27:04.020Z,1.43
2023-04-12T08:29:52.082Z,2.33
2023-04-12T08:32:41.813Z,1.17
2023-04-12T08:35:29.953Z,1.17
2023-04-12T08:38:18.108Z,1.43
2023-04-12T08:41:06.494Z,1.10
2023-04-12T08:43:56.979Z,1.70
2023-04-12T08:46:46.144Z,2.10
2023-04-12T08:49:36.110Z,1.80
2023-04-12T08:52:24.218Z,2.07
2023-04-12T08:55:12.998Z,1.40
2023-04-12T08:58:04.032Z,1.33
2023-04-12T09:00:52.622Z,1.20
2023-04-12T09:03:40.890Z,1.63
2023-04-12T09:06:31.083Z,2.17
2023-04-12T09:09:19.465Z,1.60
2023-04-12T09:12:08.660Z,1.33
2023-04-12T09:15:12.875Z,1.47
2023-04-12T09:18:07.505Z,1.70
2023-04-12T09:21:08.634Z,1.67
2023-04-12T09:24:13.548Z,1.20
2023-04-12T09:27:04.298Z,1.47
2023-04-12T09:29:53.156Z,1.40
2023-04-12T09:32:41.657Z,2.23
2023-04-12T09:35:35.551Z,1.27
2023-04-12T09:38:23.887Z,0.90
2023-04-12T09:41:26.393Z,1.10
2023-04-12T09:44:30.462Z,0.70
2023-04-12T09:47:19.009Z,1.07
2023-04-12T09:50:09.957Z,2.27
2023-04-12T09:52:59.920Z,1.30
2023-04-12T09:55:49.562Z,1.17
2023-04-12T09:58:41.216Z,1.17
2023-04-12T10:01:31.287Z,1.03
2023-04-12T10:04:20.891Z,1.77
2023-04-12T10:07:09.267Z,0.73
2023-04-12T10:10:00.621Z,1.40
2023-04-12T10:12:50.006Z,1.00
2023-04-12T10:15:40.447Z,1.17
2023-04-12T10:18:29.677Z,1.27
2023-04-12T10:21:18.434Z,2.73
2023-04-12T10:24:07.876Z,1.37
2023-04-12T10:27:00.296Z,1.63
2023-04-12T10:29:49.080Z,1.30
2023-04-12T10:32:38.882Z,1.90
2023-04-12T10:35:27.242Z,1.40
2023-04-12T10:38:16.479Z,0.70
2023-04-12T10:41:16.422Z,1.10
2023-04-12T10:44:26.089Z,1.07
2023-04-12T10:47:14.938Z,1.73
2023-04-12T10:50:25.082Z,0.90
2023-04-12T10:53:25.344Z,1.43
2023-04-12T10:56:36.422Z,0.97
2023-04-12T10:59:34.205Z,1.00
2023-04-12T11:02:25.949Z,1.23
2023-04-12T11:05:18.702Z,1.03
2023-04-12T11:08:09.171Z,1.90
2023-04-12T11:11:05.307Z,1.07
2023-04-12T11:13:57.268Z,2.13
2023-04-12T11:17:22.959Z,0.73
2023-04-12T11:20:13.779Z,1.40
2023-04-12T11:23:02.672Z,0.97
2023-04-12T11:25:58.158Z,1.00
2023-04-12T11:28:48.360Z,0.80
2023-04-12T11:31:39.429Z,0.80
2023-04-12T11:34:28.003Z,1.20
2023-04-12T11:37:20.554Z,1.30
2023-04-12T11:40:11.492Z,0.90
2023-04-12T11:43:01.512Z,1.23
2023-04-12T11:45:49.724Z,0.87
2023-04-12T11:48:39.032Z,1.17
2023-04-12T11:51:31.630Z,1.00
2023-04-12T11:54:20.580Z,0.80
2023-04-12T11:57:08.739Z,1.13
2023-04-12T11:59:59.547Z,0.90
2023-04-12T12:03:04.071Z,1.00
2023-04-12T12:05:56.558Z,1.20
2023-04-12T12:08:45.589Z,0.80
2023-04-12T12:11:33.766Z,1.00
2023-04-12T12:14:22.455Z,1.47
2023-04-12T12:17:17.144Z,1.20
2023-04-12T12:20:06.846Z,1.93
2023-04-12T12:22:55.597Z,0.97
2023-04-12T12:25:47.844Z,0.80
2023-04-12T12:28:38.406Z,0.80
2023-04-12T12:31:28.330Z,1.27
2023-04-12T12:34:19.536Z,0.90
2023-04-12T12:37:10.739Z,0.90
2023-04-12T12:40:13.856Z,0.80
2023-04-12T12:43:02.392Z,2.03
2023-04-12T12:45:50.758Z,0.90
2023-04-12T12:48:41.933Z,1.00
2023-04-12T12:51:31.555Z,1.00
2023-04-12T12:54:36.133Z,0.80
2023-04-12T12:57:27.396Z,0.83
2023-04-12T13:00:16.548Z,0.90
2023-04-12T13:03:05.049Z,1.07
2023-04-12T13:05:54.499Z,0.90
2023-04-12T13:08:44.125Z,0.77
2023-04-12T13:11:32.403Z,1.87
2023-04-12T13:14:20.486Z,0.80
2023-04-12T13:17:08.794Z,0.90
2023-04-12T13:19:57.261Z,1.70
2023-04-12T13:22:45.535Z,0.80
2023-04-12T13:25:35.024Z,0.80
2023-04-12T13:28:23.161Z,0.80
2023-04-12T13:31:11.261Z,0.90
2023-04-12T13:33:59.399Z,1.00
2023-04-12T13:36:47.775Z,0.90
2023-04-12T13:39:36.401Z,1.37
2023-04-12T13:42:26.680Z,0.80
2023-04-12T13:45:15.053Z,1.10
2023-04-12T13:48:03.323Z,1.00
2023-04-12T13:50:53.572Z,0.90
2023-04-12T13:53:43.599Z,1.07
2023-04-12T13:56:31.678Z,1.50
2023-04-12T13:59:21.780Z,1.10
2023-04-12T14:02:10.063Z,1.27
2023-04-12T14:04:58.785Z,0.83
2023-04-12T14:07:49.841Z,0.83
2023-04-12T14:10:37.942Z,0.70
2023-04-12T14:13:27.665Z,0.77
2023-04-12T14:16:17.175Z,0.63
2023-04-12T14:19:05.332Z,0.80
2023-04-12T14:21:53.477Z,0.90
2023-04-12T14:24:41.713Z,0.60
2023-04-12T14:27:29.803Z,0.90
2023-04-12T14:30:19.117Z,1.30
2023-04-12T14:33:08.926Z,0.50
2023-04-12T14:35:57.857Z,0.40
2023-04-12T14:38:46.270Z,0.87
2023-04-12T14:41:34.843Z,1.03
2023-04-12T14:44:26.080Z,0.53
2023-04-12T14:47:14.808Z,0.30
2023-04-12T14:50:04.482Z,0.40
2023-04-12T14:52:52.718Z,0.33
2023-04-12T14:55:40.939Z,0.63
2023-04-12T14:58:30.696Z,0.40
2023-04-12T15:01:18.800Z,0.70
2023-04-12T15:04:07.358Z,0.60
2023-04-12T15:06:56.938Z,0.57
2023-04-12T15:09:45.325Z,0.60
2023-04-12T15:12:35.510Z,0.70
2023-04-12T15:15:23.637Z,0.80
2023-04-12T15:18:12.143Z,1.53
2023-04-12T15:21:00.264Z,1.00
2023-04-12T15:23:50.503Z,0.60
2023-04-12T15:26:38.772Z,0.80
2023-04-12T15:29:27.765Z,1.90
2023-04-12T15:32:16.407Z,2.10
2023-04-12T15:35:15.010Z,0.97
2023-04-12T15:38:15.079Z,1.20
2023-04-12T15:41:14.821Z,1.00
2023-04-12T15:44:08.348Z,1.30
2023-04-12T15:47:09.690Z,1.40
2023-04-12T15:49:58.848Z,1.10
2023-04-12T15:52:47.470Z,1.20
2023-04-12T15:55:36.169Z,1.20
2023-04-12T15:58:27.260Z,0.90
2023-04-12T16:01:16.075Z,0.80
2023-04-12T16:04:05.555Z,0.97
2023-04-12T16:06:54.501Z,0.80
2023-04-12T16:09:42.617Z,0.90
2023-04-12T16:12:30.704Z,0.83
2023-04-12T16:15:21.751Z,1.33
2023-04-12T16:18:10.183Z,0.90
2023-04-12T16:20:58.496Z,0.80
2023-04-12T16:23:48.107Z,0.63
2023-04-12T16:26:36.172Z,0.57
2023-04-12T16:29:24.520Z,1.33
2023-04-12T16:32:14.896Z,0.77
2023-04-12T16:35:04.676Z,1.20
2023-04-12T16:37:53.001Z,0.83
2023-04-12T16:40:41.457Z,0.80
2023-04-12T16:43:29.530Z,1.57
2023-04-12T16:46:17.671Z,2.10
2023-04-12T16:49:07.373Z,0.80
2023-04-12T16:51:56.048Z,1.93
2023-04-12T16:54:44.959Z,0.77
2023-04-12T16:57:33.795Z,0.53
2023-04-12T17:00:23.893Z,0.90
2023-04-12T17:03:12.831Z,0.87
2023-04-12T17:06:02.754Z,0.60
2023-04-12T17:08:51.443Z,0.60
2023-04-12T17:11:39.524Z,0.90
2023-04-12T17:14:29.911Z,1.23
2023-04-12T17:17:18.151Z,1.10
2023-04-12T17:20:10.540Z,0.90
2023-04-12T17:23:00.665Z,1.10
2023-04-12T17:25:48.758Z,1.17
2023-04-12T17:28:39.449Z,1.83
2023-04-12T17:31:29.456Z,2.63
2023-04-12T17:34:17.840Z,2.53
2023-04-12T17:37:06.132Z,4.20
2023-04-12T17:39:57.077Z,2.20
2023-04-12T17:42:46.081Z,2.93
2023-04-12T17:45:35.321Z,5.27
2023-04-12T17:48:23.894Z,4.23
2023-04-12T17:51:12.519Z,3.47
2023-04-12T17:54:03.573Z,2.67
2023-04-12T17:56:53.271Z,2.20
2023-04-12T17:59:41.701Z,4.57
2023-04-12T18:02:29.965Z,4.00
2023-04-12T18:05:18.411Z,3.43
2023-04-12T18:08:06.790Z,3.47
2023-04-12T18:10:54.932Z,2.77
2023-04-12T18:13:44.653Z,3.47
2023-04-12T18:16:32.906Z,3.23
2023-04-12T18:19:21.411Z,4.23
2023-04-12T18:22:09.620Z,2.30
2023-04-12T18:24:57.723Z,1.13
2023-04-12T18:27:48.390Z,1.57
2023-04-12T18:30:38.078Z,2.80
2023-04-12T18:33:27.678Z,4.30
2023-04-12T18:36:16.055Z,2.07
2023-04-12T18:39:04.678Z,2.20
2023-04-12T18:41:52.845Z,3.40
2023-04-12T18:44:42.222Z,2.73
2023-04-12T18:47:31.673Z,1.77
2023-04-12T18:50:19.878Z,3.40
2023-04-12T18:53:08.438Z,2.97
2023-04-12T18:55:57.205Z,0.73
2023-04-12T18:58:54.560Z,3.27
2023-04-12T19:01:44.113Z,2.73
2023-04-12T19:04:33.920Z,1.20
2023-04-12T19:07:22.275Z,1.57
2023-04-12T19:10:10.905Z,3.60
2023-04-12T19:13:07.895Z,2.07
2023-04-12T19:15:57.138Z,2.50
2023-04-12T19:18:45.178Z,2.37
2023-04-12T19:21:35.525Z,2.10
2023-04-12T19:24:23.507Z,4.70
2023-04-12T19:27:11.838Z,1.70
2023-04-12T19:29:59.906Z,2.70
2023-04-12T19:32:47.992Z,1.43
2023-04-12T19:35:36.374Z,1.63
2023-04-12T19:38:25.940Z,1.60
2023-04-12T19:41:14.431Z,2.83
2023-04-12T19:44:02.577Z,2.37
2023-04-12T19:46:51.663Z,3.70
2023-04-12T19:49:39.705Z,1.63
2023-04-12T19:52:28.408Z,2.83
2023-04-12T19:55:18.002Z,2.03
2023-04-12T19:58:06.179Z,4.10
2023-04-12T20:00:55.661Z,1.83
2023-04-12T20:03:44.688Z,1.63
2023-04-12T20:06:32.702Z,2.50
2023-04-12T20:09:22.308Z,3.77
2023-04-12T20:12:11.779Z,1.83
2023-04-12T20:14:59.983Z,2.70
2023-04-12T20:17:48.556Z,3.37
2023-04-12T20:20:36.696Z,3.90
2023-04-12T20:23:25.545Z,3.07
2023-04-12T20:26:13.924Z,3.03
2023-04-12T20:29:04.919Z,4.00
2023-04-12T20:31:53.605Z,3.00
2023-04-12T20:34:46.539Z,2.60
2023-04-12T20:37:34.618Z,2.80
2023-04-12T20:40:26.992Z,3.90
2023-04-12T20:43:15.552Z,3.10
2023-04-12T20:46:09.846Z,1.77
2023-04-12T20:48:58.315Z,3.30
2023-04-12T20:51:47.159Z,1.73
2023-04-12T20:54:35.379Z,1.60
2023-04-12T20:57:23.838Z,2.10
2023-04-12T21:00:18.215Z,2.43
2023-04-12T21:03:08.299Z,4.60
2023-04-12T21:05:56.542Z,2.10
2023-04-12T21:08:46.881Z,5.57
2023-04-12T21:11:35.234Z,2.17
2023-04-12T21:14:23.321Z,3.93
2023-04-12T21:17:11.546Z,2.57
2023-04-12T21:20:01.046Z,2.80
2023-04-12T21:22:52.058Z,4.63
2023-04-12T21:25:40.524Z,3.53
2023-04-12T21:28:29.828Z,5.83
2023-04-12T21:31:18.845Z,3.87
2023-04-12T21:34:07.593Z,4.30
2023-04-12T21:36:57.393Z,2.97
2023-04-12T21:39:45.920Z,3.80
2023-04-12T21:42:34.642Z,4.13
2023-04-12T21:45:22.812Z,5.53
2023-04-12T21:48:11.088Z,4.10
2023-04-12T21:50:59.122Z,5.70
2023-04-12T21:53:48.642Z,6.53
2023-04-12T21:56:36.848Z,3.90
2023-04-12T21:59:26.688Z,5.37
2023-04-12T22:02:15.515Z,4.50
2023-04-12T22:05:04.197Z,6.57
2023-04-12T22:07:52.259Z,5.00
2023-04-12T22:10:41.880Z,4.90
2023-04-12T22:13:30.720Z,4.83
2023-04-12T22:16:18.933Z,4.57
2023-04-12T22:19:07.518Z,7.00
2023-04-12T22:21:56.271Z,5.03
2023-04-12T22:24:45.448Z,4.80
2023-04-12T22:27:35.176Z,7.47
2023-04-12T22:30:23.631Z,7.73
2023-04-12T22:33:13.675Z,6.70
2023-04-12T22:36:02.338Z,5.20
2023-04-12T22:38:50.641Z,6.73
2023-04-12T22:41:39.045Z,6.30
2023-04-12T22:44:29.235Z,8.37
2023-04-12T22:47:17.330Z,5.20
2023-04-12T22:50:08.621Z,7.87
2023-04-12T22:52:57.681Z,6.30
2023-04-12T22:55:45.780Z,7.03
2023-04-12T22:58:34.518Z,7.97
2023-04-12T23:01:24.272Z,8.07
2023-04-12T23:04:13.402Z,7.33
2023-04-12T23:07:02.445Z,8.33
2023-04-12T23:09:51.231Z,9.27
2023-04-12T23:12:39.496Z,8.47
2023-04-12T23:15:27.604Z,8.03
2023-04-12T23:18:17.108Z,6.90
2023-04-12T23:21:05.605Z,8.70
2023-04-12T23:23:56.491Z,7.80
2023-04-12T23:26:46.078Z,7.27
2023-04-12T23:29:35.105Z,9.50
2023-04-12T23:32:23.257Z,7.53
2023-04-12T23:35:14.762Z,7.73
2023-04-12T23:38:02.912Z,6.03
2023-04-12T23:40:53.897Z,6.53
2023-04-12T23:43:42.730Z,9.67
2023-04-12T23:46:30.973Z,6.43
2023-04-12T23:49:19.154Z,7.33
2023-04-12T23:52:08.614Z,8.07
2023-04-12T23:54:57.205Z,5.97
2023-04-12T23:57:45.373Z,5.43
